Latest Weather Observations for Newdegate

IDW60801

Issued at 11:02 pm WST Wednesday 4 March 2015 (issued every 30 minutes, with the page automatically refreshed every 10 minutes)

About weather observations | Map of weather stations | Latest weather observations for WA | Other Formats
Station Details ID: 010692 Name: NEWDEGATE RESEARCH STATION Lat: -33.11 Lon: 118.84 Height: 320.0 m
Data from the previous 72 hours. | See also: Recent months at Newdegate
Date/Time
WST
Temp
°C
App
Temp
°C
Dew
Point
Rel
Hum
%
Delta-T
°C
Wind Press
QNH
hPa
Press
MSL
hPa
Rain
since 9 am
mm
Dir
 
Spd
km/h
Gust
km/h
Spd
kts
Gust
kts
04/11:00pm 14.7 11.8 11.1 79 1.9 ESE 17 22 9 12 1026.3 1025.2 0.0
04/10:30pm 15.1 11.9 11.3 78 2.1 ESE 19 28 10 15 1026.1 1025.0 0.0
04/10:00pm 15.4 12.2 11.4 77 2.2 ESE 19 26 10 14 1026.4 1025.3 0.0
04/09:30pm 15.6 12.4 11.4 76 2.3 ESE 19 30 10 16 1026.5 1025.4 0.0
04/09:00pm 16.0 11.9 11.6 75 2.4 SE 24 33 13 18 1026.3 1025.2 0.0
04/08:30pm 16.6 12.1 11.5 72 2.8 SE 26 35 14 19 1026.1 1025.0 0.0
04/08:00pm 17.6 13.5 11.6 68 3.3 SE 24 33 13 18 1025.4 1024.3 0.0
04/07:30pm 18.9 14.1 11.7 63 4.0 SE 28 35 15 19 1025.0 1023.9 0.0
04/07:00pm 20.1 16.7 11.3 57 4.9 SE 20 26 11 14 1024.3 1023.2 0.0
04/06:30pm 21.5 18.0 10.9 51 5.9 SE 20 28 11 15 1024.1 1023.0 0.0
04/06:00pm 22.8 18.2 10.9 47 6.7 SE 26 35 14 19 1023.8 1022.7 0.0
04/05:30pm 23.8 19.1 10.5 43 7.5 ESE 26 33 14 18 1023.5 1022.4 0.0
04/05:00pm 24.6 19.7 10.1 40 8.1 SE 26 33 14 18 1023.2 1022.1 0.0
04/04:30pm 24.9 19.9 9.6 38 8.5 SE 26 35 14 19 1023.1 1022.0 0.0
04/04:00pm 24.9 20.4 10.0 39 8.3 SE 24 37 13 20 1023.0 1021.8 0.0
04/03:30pm 25.0 21.0 10.5 40 8.2 SE 22 37 12 20 1022.9 1021.7 0.0
04/03:00pm 25.5 21.0 10.1 38 8.6 SE 24 35 13 19 1022.9 1021.7 0.0
04/02:30pm 25.8 21.4 11.6 41 8.2 SE 26 33 14 18 1022.9 1021.7 0.0
04/02:00pm 25.5 21.5 11.7 42 7.9 SE 24 44 13 24 1023.1 1022.0 0.0
04/01:30pm 27.2 24.0 12.0 38 8.9 SE 20 35 11 19 1023.1 1022.0 0.0
04/01:00pm 25.8 22.7 10.4 38 8.7 ESE 17 32 9 17 1023.4 1022.3 0.0
04/12:30pm 26.0 23.1 11.0 39 8.6 ESE 17 28 9 15 1023.6 1022.5 0.0
04/12:00pm 25.4 22.3 11.6 42 7.9 E 19 30 10 16 1023.9 1022.8 0.0
04/11:30am 24.6 21.5 11.5 44 7.5 ESE 19 26 10 14 1024.3 1023.2 0.0
04/11:00am 23.1 19.6 10.9 46 6.8 E 20 32 11 17 1024.9 1023.8 0.0
04/10:30am 23.2 19.9 11.6 48 6.6 E 20 28 11 15 1025.1 1024.0 0.0
04/10:00am 22.3 18.6 11.4 50 6.1 E 22 30 12 16 1025.3 1024.2 0.0
04/09:30am 21.1 17.1 11.7 55 5.3 E 24 33 13 18 1025.2 1024.1 0.0
04/09:00am 20.3 17.0 12.8 62 4.3 E 22 30 12 16 1025.3 1024.2 0.0
04/08:30am 19.2 15.3 12.2 64 4.0 E 24 32 13 17 1025.4 1024.3 0.0
04/08:00am 17.5 13.9 13.0 75 2.5 ESE 24 30 13 16 1025.1 1024.0 0.0
04/07:30am 16.5 12.9 13.2 81 1.9 ESE 24 32 13 17 1025.0 1023.9 0.0
04/07:00am 15.4 13.1 13.1 86 1.3 SE 17 24 9 13 1024.7 1023.6 0.0
04/06:30am 14.3 12.6 12.3 88 1.1 SE 13 17 7 9 1024.3 1023.2 0.0
04/06:00am 13.7 12.1 11.6 87 1.1 SE 11 15 6 8 1024.0 1022.9 0.0
04/05:30am 13.8 12.2 11.5 86 1.2 SE 11 15 6 8 1023.7 1022.6 0.0
04/05:00am 14.1 12.1 11.6 85 1.4 SE 13 17 7 9 1023.2 1022.1 0.0
04/04:30am 14.5 12.6 11.8 84 1.5 SE 13 19 7 10 1022.8 1021.6 0.0
04/04:00am 14.8 13.3 11.9 83 1.6 ESE 11 17 6 9 1022.7 1021.5 0.0
04/03:30am 15.3 12.7 11.9 80 1.9 ESE 17 24 9 13 1022.7 1021.5 0.0
04/03:00am 15.8 13.2 12.0 78 2.1 ESE 17 24 9 13 1022.7 1021.5 0.0
04/02:30am 15.8 12.8 12.0 78 2.1 ESE 19 22 10 12 1022.7 1021.5 0.0
04/02:00am 15.7 12.2 12.1 79 2.0 SE 22 30 12 16 1022.6 1021.4 0.0
04/01:30am 15.7 12.2 12.1 79 2.0 ESE 22 33 12 18 1023.1 1022.0 0.0
04/01:00am 15.7 12.2 12.3 80 1.9 ESE 22 30 12 16 1023.3 1022.2 0.0
04/12:30am 15.9 12.5 12.6 81 1.8 SE 22 28 12 15 1023.3 1022.2 0.0
04/12:00am 15.9 12.5 12.6 81 1.8 ESE 22 30 12 16 1023.4 1022.3 0.0
 
Date/Time
WST
Temp
°C
App
Temp
°C
Dew
Point
Rel
Hum
%
Delta-T
°C
Wind Press
QNH
hPa
Press
MSL
hPa
Rain
since 9 am
mm
Dir
 
Spd
km/h
Gust
km/h
Spd
kts
Gust
kts
03/11:30pm 15.8 12.4 12.5 81 1.8 SE 22 33 12 18 1023.2 1022.1 0.0
03/11:00pm 15.8 12.0 12.5 81 1.8 SE 24 35 13 19 1023.2 1022.1 0.0
03/10:30pm 15.5 13.1 12.6 83 1.6 SE 17 28 9 15 1023.5 1022.4 0.0
03/10:00pm 15.8 12.8 12.5 81 1.8 SE 20 32 11 17 1023.5 1022.4 0.0
03/09:30pm 16.1 13.2 12.8 81 1.9 SE 20 32 11 17 1023.6 1022.5 0.0
03/09:00pm 16.0 13.4 13.3 84 1.5 SE 19 24 10 13 1023.5 1022.4 0.0
03/08:30pm 15.8 12.5 12.9 83 1.6 SE 22 33 12 18 1023.1 1022.0 0.0
03/08:00pm 16.0 12.4 13.1 83 1.6 SE 24 33 13 18 1022.9 1021.7 0.0
03/07:30pm 16.5 12.6 13.2 81 1.9 SE 26 35 14 19 1022.4 1021.2 0.0
03/07:00pm 17.2 12.9 13.3 78 2.2 SSE 28 37 15 20 1021.8 1020.7 0.0
03/06:30pm 18.4 14.2 13.5 73 2.8 SSE 28 37 15 20 1021.6 1020.5 0.0
03/06:00pm 20.3 15.7 13.5 65 3.9 SE 30 39 16 21 1021.1 1020.0 0.0
03/05:30pm 21.5 17.3 13.4 60 4.7 SE 28 39 15 21 1020.8 1019.7 0.0
03/05:00pm 22.5 17.9 13.6 57 5.2 SE 30 37 16 20 1020.7 1019.6 0.0
03/04:30pm 23.6 20.1 13.5 53 6.0 SE 24 33 13 18 1020.6 1019.5 0.0
03/04:00pm 24.4 21.3 13.3 50 6.5 SE 22 33 12 18 1020.5 1019.4 0.0
03/03:30pm 24.3 21.0 12.9 49 6.7 SE 22 32 12 17 1020.4 1019.3 0.0
03/03:00pm 25.4 22.4 12.6 45 7.5 SE 20 33 11 18 1020.5 1019.4 0.0
03/02:30pm 25.4 23.1 12.9 45 7.4 SE 17 28 9 15 1020.6 1019.5 0.0
03/02:00pm 25.3 22.5 12.5 45 7.5 ESE 19 28 10 15 1020.9 1019.8 0.0
03/01:30pm 23.6 20.1 11.0 45 7.1 SE 20 33 11 18 1021.1 1020.0 0.0
03/01:00pm 25.5 22.6 13.0 46 7.4 ESE 20 30 11 16 1021.1 1020.0 0.0
03/12:30pm 24.1 20.9 11.4 45 7.2 SE 19 32 10 17 1021.4 1020.3 0.0
03/12:00pm 24.9 22.5 12.8 47 7.1 ESE 17 26 9 14 1021.6 1020.5 0.0
03/11:30am 23.3 21.1 13.2 53 5.9 SE 17 24 9 13 1021.9 1020.8 0.0
03/11:00am 23.6 21.1 12.3 49 6.5 ESE 17 26 9 14 1022.3 1021.1 0.0
03/10:30am 22.3 19.4 12.3 53 5.7 ESE 19 26 10 14 1022.5 1021.3 0.0
03/10:00am 21.6 18.8 12.5 56 5.2 ESE 19 24 10 13 1022.7 1021.5 0.0
03/09:30am 20.7 17.8 12.4 59 4.7 ESE 19 28 10 15 1022.7 1021.5 0.0
03/09:00am 20.1 17.6 13.6 66 3.8 ESE 19 26 10 14 1022.8 1021.6 5.0
03/08:30am 18.5 16.0 13.4 72 2.9 ESE 19 22 10 12 1022.8 1021.6 5.0
03/08:00am 17.4 15.3 13.7 79 2.1 ESE 17 22 9 12 1022.7 1021.5 5.0
03/07:30am 16.3 14.2 13.6 84 1.5 ESE 17 24 9 13 1022.8 1021.6 5.0
03/07:00am 15.6 13.9 13.6 88 1.1 SE 15 20 8 11 1022.4 1021.2 5.0
03/06:30am 14.7 12.8 13.1 90 0.9 SE 15 20 8 11 1022.0 1020.9 5.0
03/06:00am 14.4 12.4 12.8 90 0.9 SE 15 20 8 11 1021.7 1020.6 5.0
03/05:30am 14.5 12.6 12.9 90 0.9 SE 15 19 8 10 1021.4 1020.3 5.0
03/05:00am 14.7 13.1 12.9 89 1.0 SE 13 17 7 9 1021.1 1020.0 5.0
03/04:30am 14.9 13.4 13.1 89 1.0 SE 13 17 7 9 1021.1 1020.0 5.0
03/04:00am 15.2 13.8 13.4 89 1.0 SE 13 20 7 11 1021.0 1019.9 5.0
03/03:30am 15.4 13.7 13.6 89 1.0 SE 15 20 8 11 1020.8 1019.7 5.0
03/03:00am 15.6 13.6 13.8 89 1.0 SE 17 22 9 12 1020.7 1019.6 5.0
03/02:30am 15.7 13.7 13.9 89 1.0 SE 17 22 9 12 1020.8 1019.7 5.0
03/02:00am 15.7 13.7 13.9 89 1.0 SE 17 22 9 12 1020.5 1019.4 5.0
03/01:30am 15.6 13.6 14.0 90 0.9 SE 17 24 9 13 1020.5 1019.4 5.0
03/01:00am 15.4 13.4 13.8 90 0.9 SE 17 24 9 13 1020.5 1019.4 5.0
03/12:30am 15.1 13.0 13.6 91 0.9 SE 17 22 9 12 1020.5 1019.4 5.0
03/12:00am 15.0 12.5 13.5 91 0.8 SE 19 24 10 13 1020.5 1019.4 5.0
 
Date/Time
WST
Temp
°C
App
Temp
°C
Dew
Point
Rel
Hum
%
Delta-T
°C
Wind Press
QNH
hPa
Press
MSL
hPa
Rain
since 9 am
mm
Dir
 
Spd
km/h
Gust
km/h
Spd
kts
Gust
kts
02/11:30pm 14.7 13.2 13.2 91 0.8 ESE 13 20 7 11 1020.9 1019.8 5.0
02/11:00pm 14.6 12.3 13.1 91 0.8 SE 17 24 9 13 1020.9 1019.8 5.0
02/10:30pm 14.6 11.0 13.1 91 0.8 SSE 24 32 13 17 1020.8 1019.7 5.0
02/10:00pm 14.7 12.4 13.1 90 0.9 SSE 17 22 9 12 1021.1 1020.0 5.0
02/09:30pm 15.4 12.4 13.6 89 1.0 SE 22 33 12 18 1021.0 1019.9 5.0
02/09:00pm 15.8 12.8 13.6 87 1.3 SSE 22 32 12 17 1020.8 1019.7 5.0
02/08:30pm 15.8 12.7 13.5 86 1.3 SE 22 32 12 17 1020.5 1019.4 5.0
02/08:00pm 15.7 12.6 13.4 86 1.3 SE 22 33 12 18 1019.9 1018.7 5.0
02/07:30pm 15.8 12.3 13.3 85 1.4 SE 24 32 13 17 1019.3 1018.1 5.0
02/07:00pm 15.8 11.9 13.3 85 1.4 SSE 26 39 14 21 1019.0 1017.8 5.0
02/06:30pm 16.1 13.1 13.6 85 1.4 SSE 22 32 12 17 1018.5 1017.4 5.0
02/06:00pm 15.8 12.4 13.6 87 1.3 SSE 24 35 13 19 1018.1 1017.0 5.0
02/05:30pm 15.9 11.0 13.6 86 1.3 SSE 32 43 17 23 1017.9 1016.8 5.0
02/05:00pm 16.0 11.5 13.7 86 1.3 SSE 30 41 16 22 1017.7 1016.6 5.0
02/04:30pm 17.4 13.0 14.1 81 1.9 SSE 30 43 16 23 1017.2 1016.0 5.0
02/04:00pm 17.9 13.4 14.8 82 1.8 SE 32 43 17 23 1016.8 1015.6 5.0
02/03:30pm 17.7 14.4 15.0 84 1.6 SE 26 37 14 20 1017.1 1015.9 5.0
02/03:00pm 17.2 13.0 14.7 85 1.5 SE 30 37 16 20 1017.0 1015.8 4.8
02/02:30pm 16.6 12.2 14.2 86 1.4 SE 30 39 16 21 1017.0 1015.8 4.8
02/02:00pm 16.5 11.8 14.3 87 1.3 SE 32 41 17 22 1017.1 1015.9 4.8
02/01:30pm 16.5 11.6 14.3 87 1.3 SE 33 44 18 24 1017.3 1016.1 4.8
02/01:00pm 16.2 11.5 14.4 89 1.0 SE 32 41 17 22 1017.4 1016.2 4.8
02/12:30pm 16.0 11.7 14.4 90 0.9 SE 30 44 16 24 1017.4 1016.2 4.8
02/12:00pm 16.4 12.3 14.9 91 0.9 SE 30 43 16 23 1017.5 1016.3 4.8
02/11:30am 15.8 12.6 14.3 91 0.9 SE 24 37 13 20 1017.7 1016.6 4.4
02/11:00am 15.4 11.3 13.8 90 0.9 SE 28 35 15 19 1017.9 1016.8 2.2
02/10:30am 15.4 11.3 13.8 90 0.9 SE 28 39 15 21 1017.4 1016.2 2.2
02/10:00am 15.4 11.3 13.9 91 0.9 SSE 28 37 15 20 1017.1 1015.9 2.2
02/09:30am 15.4 11.7 13.9 91 0.9 SSE 26 37 14 20 1017.1 1015.9 1.4
02/09:00am 15.3 12.7 13.8 91 0.9 SSE 20 28 11 15 1016.9 1015.7 7.8
02/08:30am 15.1 12.4 13.5 90 0.9 SSE 20 30 11 16 1016.9 1015.7 4.6
02/08:00am 15.2 12.2 13.6 90 0.9 SSE 22 30 12 16 1016.5 1015.3 1.4
02/07:30am 15.6 13.1 14.0 90 0.9 SSE 20 32 11 17 1016.2 1015.0 1.0
02/07:00am 15.5 12.2 13.9 90 0.9 SE 24 32 13 17 1015.8 1014.6 1.0
02/06:30am 15.5 11.8 13.9 90 0.9 SE 26 35 14 19 1015.3 1014.2 1.0
02/06:00am 15.6 11.6 14.0 90 0.9 SE 28 37 15 20 1014.8 1013.6 1.0
02/05:30am 15.6 12.7 14.0 90 0.9 SE 22 33 12 18 1014.6 1013.4 1.0
02/05:00am 15.6 12.3 14.0 90 0.9 SSE 24 33 13 18 1014.2 1013.0 1.0
02/04:30am 15.6 13.3 14.0 90 0.9 SSE 19 26 10 14 1013.9 1012.7 0.8
02/04:00am 15.6 13.3 14.0 90 0.9 SE 19 26 10 14 1014.0 1012.8 0.8
02/03:30am 15.3 12.5 13.3 88 1.1 SE 20 26 11 14 1014.0 1012.8 0.4
02/03:00am 15.6 13.0 13.3 86 1.3 S 19 24 10 13 1013.9 1012.7 0.2
02/02:30am 16.0 13.4 13.1 83 1.6 SSE 19 26 10 14 1013.9 1012.7 0.2
02/02:00am 16.3 13.5 13.2 82 1.8 SSE 20 28 11 15 1013.5 1012.3 0.2
02/01:30am 16.3 13.7 13.2 82 1.8 SSE 19 28 10 15 1013.6 1012.4 0.2
02/01:00am 16.4 13.3 13.3 82 1.8 SSE 22 30 12 16 1013.7 1012.5 0.2
02/12:30am 16.6 13.8 13.3 81 1.9 SSE 20 28 11 15 1014.0 1012.8 0.2
02/12:00am 16.6 13.4 13.1 80 2.0 SSE 22 32 12 17 1014.0 1012.8 0.2
 
Date/Time
WST
Temp
°C
App
Temp
°C
Dew
Point
Rel
Hum
%
Delta-T
°C
Wind Press
QNH
hPa
Press
MSL
hPa
Rain
since 9 am
mm
Dir
 
Spd
km/h
Gust
km/h
Spd
kts
Gust
kts
01/11:30pm 16.7 14.3 13.8 83 1.7 SE 19 24 10 13 1014.1 1012.9 0.2

Other Formats:

Comma delimited format used in spreadsheet applications
http://www.bom.gov.au/fwo/IDW60801/IDW60801.94628.axf

JavaScript Object Notation format (JSON) in row-major order
http://www.bom.gov.au/fwo/IDW60801/IDW60801.94628.json